sensor_id;sensor_type;location;lat;lon;timestamp;pressure;altitude;pressure_sealevel;temperature;humidity
63700;BME280;49845;47.130;142.766;2023-08-06T00:00:10;99911.66;;;18.21;73.06
63700;BME280;49845;47.130;142.766;2023-08-06T00:02:40;99919.94;;;18.15;70.77
63700;BME280;49845;47.130;142.766;2023-08-06T00:05:11;99924.75;;;18.06;71.01
63700;BME280;49845;47.130;142.766;2023-08-06T00:07:43;99928.22;;;18.24;69.87
63700;BME280;49845;47.130;142.766;2023-08-06T00:10:14;99927.53;;;18.21;70.72
63700;BME280;49845;47.130;142.766;2023-08-06T00:12:45;99921.19;;;18.07;72.06
63700;BME280;49845;47.130;142.766;2023-08-06T00:15:17;99917.19;;;17.83;72.80
63700;BME280;49845;47.130;142.766;2023-08-06T00:17:47;99931.63;;;17.76;72.95
63700;BME280;49845;47.130;142.766;2023-08-06T00:20:18;99922.91;;;17.74;74.27
63700;BME280;49845;47.130;142.766;2023-08-06T00:22:50;99930.41;;;17.83;74.63
63700;BME280;49845;47.130;142.766;2023-08-06T00:25:21;99929.59;;;17.98;73.34
63700;BME280;49845;47.130;142.766;2023-08-06T00:27:51;99923.75;;;18.09;71.37
63700;BME280;49845;47.130;142.766;2023-08-06T00:30:22;99923.56;;;18.12;72.70
63700;BME280;49845;47.130;142.766;2023-08-06T00:32:52;99919.16;;;18.13;71.94
63700;BME280;49845;47.130;142.766;2023-08-06T00:35:23;99937.94;;;18.24;71.45
63700;BME280;49845;47.130;142.766;2023-08-06T00:37:55;99925.16;;;18.32;72.02
63700;BME280;49845;47.130;142.766;2023-08-06T00:40:25;99931.47;;;18.79;71.23
63700;BME280;49845;47.130;142.766;2023-08-06T00:42:57;99928.47;;;19.01;68.35
63700;BME280;49845;47.130;142.766;2023-08-06T00:45:28;99926.91;;;19.28;68.67
63700;BME280;49845;47.130;142.766;2023-08-06T00:47:59;99919.28;;;19.68;67.63
63700;BME280;49845;47.130;142.766;2023-08-06T00:50:30;99930.78;;;20.12;67.30
63700;BME280;49845;47.130;142.766;2023-08-06T00:53:03;99933.44;;;20.12;65.61
63700;BME280;49845;47.130;142.766;2023-08-06T00:55:34;99936.00;;;19.99;66.14
63700;BME280;49845;47.130;142.766;2023-08-06T00:58:05;99931.94;;;19.63;63.49
63700;BME280;49845;47.130;142.766;2023-08-06T01:00:36;99921.97;;;19.22;65.55
63700;BME280;49845;47.130;142.766;2023-08-06T01:03:06;99918.94;;;18.82;66.79
63700;BME280;49845;47.130;142.766;2023-08-06T01:05:37;99910.50;;;18.74;69.12
63700;BME280;49845;47.130;142.766;2023-08-06T01:08:19;99903.78;;;18.84;69.19
63700;BME280;49845;47.130;142.766;2023-08-06T01:11:07;99906.63;;;18.97;67.07
63700;BME280;49845;47.130;142.766;2023-08-06T01:13:46;99906.06;;;19.22;67.21
63700;BME280;49845;47.130;142.766;2023-08-06T01:16:19;99909.91;;;19.47;68.32
63700;BME280;49845;47.130;142.766;2023-08-06T01:18:50;99905.97;;;19.54;64.48
63700;BME280;49845;47.130;142.766;2023-08-06T01:21:23;99905.56;;;19.46;65.51
63700;BME280;49845;47.130;142.766;2023-08-06T01:23:55;99906.91;;;19.53;64.89
63700;BME280;49845;47.130;142.766;2023-08-06T01:26:32;99920.47;;;19.63;66.08
63700;BME280;49845;47.130;142.766;2023-08-06T01:29:09;99922.31;;;19.76;65.67
63700;BME280;49845;47.130;142.766;2023-08-06T01:31:43;99914.59;;;20.16;65.75
63700;BME280;49845;47.130;142.766;2023-08-06T01:34:17;99887.91;;;20.19;63.83
63700;BME280;49845;47.130;142.766;2023-08-06T01:36:52;99904.75;;;20.18;64.22
63700;BME280;49845;47.130;142.766;2023-08-06T01:39:23;99919.91;;;20.16;61.85
63700;BME280;49845;47.130;142.766;2023-08-06T01:41:53;99903.19;;;19.71;62.70
63700;BME280;49845;47.130;142.766;2023-08-06T01:44:24;99906.47;;;19.60;62.22
63700;BME280;49845;47.130;142.766;2023-08-06T01:46:54;99912.28;;;19.67;64.69
63700;BME280;49845;47.130;142.766;2023-08-06T01:49:25;99917.63;;;19.96;63.96
63700;BME280;49845;47.130;142.766;2023-08-06T01:51:57;99914.22;;;20.22;61.74
63700;BME280;49845;47.130;142.766;2023-08-06T01:54:29;99922.38;;;20.34;63.19
63700;BME280;49845;47.130;142.766;2023-08-06T01:56:59;99917.47;;;20.42;63.30
63700;BME280;49845;47.130;142.766;2023-08-06T01:59:30;99920.88;;;20.58;64.44
63700;BME280;49845;47.130;142.766;2023-08-06T02:02:00;99924.19;;;20.89;62.84
63700;BME280;49845;47.130;142.766;2023-08-06T02:04:31;99931.03;;;20.93;60.99
63700;BME280;49845;47.130;142.766;2023-08-06T02:07:04;99939.00;;;20.93;61.16
63700;BME280;49845;47.130;142.766;2023-08-06T02:09:34;99933.66;;;21.07;62.14
63700;BME280;49845;47.130;142.766;2023-08-06T02:12:06;99950.16;;;20.98;59.41
63700;BME280;49845;47.130;142.766;2023-08-06T02:14:37;99947.72;;;20.95;61.51
63700;BME280;49845;47.130;142.766;2023-08-06T02:17:07;99946.81;;;21.09;59.02
63700;BME280;49845;47.130;142.766;2023-08-06T02:19:38;99933.53;;;21.36;59.73
63700;BME280;49845;47.130;142.766;2023-08-06T02:22:10;99938.53;;;21.68;60.91
63700;BME280;49845;47.130;142.766;2023-08-06T02:24:40;99933.34;;;22.05;60.37
63700;BME280;49845;47.130;142.766;2023-08-06T02:27:11;99937.06;;;22.40;61.52
63700;BME280;49845;47.130;142.766;2023-08-06T02:29:41;99927.44;;;22.64;60.40
63700;BME280;49845;47.130;142.766;2023-08-06T02:32:12;99935.47;;;22.51;57.71
63700;BME280;49845;47.130;142.766;2023-08-06T02:34:43;99932.91;;;22.11;56.20
63700;BME280;49845;47.130;142.766;2023-08-06T02:37:15;99924.94;;;22.11;56.67
63700;BME280;49845;47.130;142.766;2023-08-06T02:39:46;99932.84;;;22.25;57.73
63700;BME280;49845;47.130;142.766;2023-08-06T02:42:16;99929.63;;;22.46;57.41
63700;BME280;49845;47.130;142.766;2023-08-06T02:44:47;99920.88;;;22.44;57.57
63700;BME280;49845;47.130;142.766;2023-08-06T02:47:17;99936.00;;;22.05;55.46
63700;BME280;49845;47.130;142.766;2023-08-06T02:49:48;99935.13;;;21.66;55.93
63700;BME280;49845;47.130;142.766;2023-08-06T02:52:20;99937.34;;;21.32;57.35
63700;BME280;49845;47.130;142.766;2023-08-06T02:54:51;99944.00;;;21.39;58.52
63700;BME280;49845;47.130;142.766;2023-08-06T02:57:21;99929.75;;;21.40;59.59
63700;BME280;49845;47.130;142.766;2023-08-06T02:59:52;99942.97;;;21.54;59.36
63700;BME280;49845;47.130;142.766;2023-08-06T03:02:23;99944.91;;;21.78;59.39
63700;BME280;49845;47.130;142.766;2023-08-06T03:04:53;99933.97;;;21.95;59.23
63700;BME280;49845;47.130;142.766;2023-08-06T03:07:26;99938.13;;;22.00;59.68
63700;BME280;49845;47.130;142.766;2023-08-06T03:09:56;99938.75;;;21.90;58.07
63700;BME280;49845;47.130;142.766;2023-08-06T03:12:29;99933.00;;;21.71;59.01
63700;BME280;49845;47.130;142.766;2023-08-06T03:15:00;99930.13;;;21.74;56.52
63700;BME280;49845;47.130;142.766;2023-08-06T03:17:30;99914.06;;;21.88;58.63
63700;BME280;49845;47.130;142.766;2023-08-06T03:20:01;99912.81;;;22.07;57.96
63700;BME280;49845;47.130;142.766;2023-08-06T03:22:33;99914.63;;;22.19;56.90
63700;BME280;49845;47.130;142.766;2023-08-06T03:25:04;99914.28;;;21.85;57.33
63700;BME280;49845;47.130;142.766;2023-08-06T03:27:35;99918.31;;;21.78;57.52
63700;BME280;49845;47.130;142.766;2023-08-06T03:30:07;99931.03;;;21.47;57.88
63700;BME280;49845;47.130;142.766;2023-08-06T03:32:37;99935.06;;;21.40;57.93
63700;BME280;49845;47.130;142.766;2023-08-06T03:35:08;99908.09;;;20.92;57.94
63700;BME280;49845;47.130;142.766;2023-08-06T03:37:41;99929.50;;;20.89;57.64
63700;BME280;49845;47.130;142.766;2023-08-06T03:40:11;99926.72;;;20.78;58.83
63700;BME280;49845;47.130;142.766;2023-08-06T03:42:42;99941.31;;;20.85;59.90
63700;BME280;49845;47.130;142.766;2023-08-06T03:45:12;99937.84;;;20.97;61.26
63700;BME280;49845;47.130;142.766;2023-08-06T03:47:43;99947.31;;;21.01;59.98
63700;BME280;49845;47.130;142.766;2023-08-06T03:50:13;99942.31;;;20.97;59.67
63700;BME280;49845;47.130;142.766;2023-08-06T03:52:46;99944.66;;;21.01;61.22
63700;BME280;49845;47.130;142.766;2023-08-06T03:55:16;99936.66;;;21.16;59.75
63700;BME280;49845;47.130;142.766;2023-08-06T03:57:46;99946.06;;;21.34;59.26
63700;BME280;49845;47.130;142.766;2023-08-06T04:00:18;99948.94;;;21.71;58.71
63700;BME280;49845;47.130;142.766;2023-08-06T04:02:48;99937.91;;;21.77;56.88
63700;BME280;49845;47.130;142.766;2023-08-06T04:05:19;99930.00;;;21.63;56.33
63700;BME280;49845;47.130;142.766;2023-08-06T04:07:51;99933.00;;;21.71;59.86
63700;BME280;49845;47.130;142.766;2023-08-06T04:10:22;99940.88;;;21.85;56.96
63700;BME280;49845;47.130;142.766;2023-08-06T04:12:52;99937.06;;;21.89;58.38
63700;BME280;49845;47.130;142.766;2023-08-06T04:15:23;99939.28;;;21.95;56.68
63700;BME280;49845;47.130;142.766;2023-08-06T04:17:53;99924.25;;;21.69;54.88
63700;BME280;49845;47.130;142.766;2023-08-06T04:20:25;99920.63;;;21.44;56.88
63700;BME280;49845;47.130;142.766;2023-08-06T04:22:57;99936.91;;;21.25;56.47
63700;BME280;49845;47.130;142.766;2023-08-06T04:25:27;99926.81;;;21.03;58.85
63700;BME280;49845;47.130;142.766;2023-08-06T04:27:58;99928.22;;;20.82;57.98
63700;BME280;49845;47.130;142.766;2023-08-06T04:30:29;99923.69;;;20.70;59.89
63700;BME280;49845;47.130;142.766;2023-08-06T04:33:00;99930.91;;;20.67;59.62
63700;BME280;49845;47.130;142.766;2023-08-06T04:35:30;99921.78;;;20.72;60.61
63700;BME280;49845;47.130;142.766;2023-08-06T04:38:03;99921.97;;;20.68;59.65
63700;BME280;49845;47.130;142.766;2023-08-06T04:40:34;99920.66;;;20.61;61.34
63700;BME280;49845;47.130;142.766;2023-08-06T04:43:04;99918.38;;;20.41;58.84
63700;BME280;49845;47.130;142.766;2023-08-06T04:45:35;99914.81;;;20.28;61.74
63700;BME280;49845;47.130;142.766;2023-08-06T04:48:05;99919.44;;;20.10;62.72
63700;BME280;49845;47.130;142.766;2023-08-06T04:50:36;99927.94;;;19.86;63.49
63700;BME280;49845;47.130;142.766;2023-08-06T04:53:08;99917.06;;;19.60;63.58
63700;BME280;49845;47.130;142.766;2023-08-06T04:55:39;99831.22;;;18.88;65.85
63700;BME280;49845;47.130;142.766;2023-08-06T04:58:10;99941.00;;;19.59;64.90
63700;BME280;49845;47.130;142.766;2023-08-06T05:00:40;99931.94;;;19.63;64.81
63700;BME280;49845;47.130;142.766;2023-08-06T05:03:11;99937.47;;;19.74;65.21
63700;BME280;49845;47.130;142.766;2023-08-06T05:05:41;99942.50;;;19.79;65.60
63700;BME280;49845;47.130;142.766;2023-08-06T05:08:16;99946.41;;;19.88;64.69
63700;BME280;49845;47.130;142.766;2023-08-06T05:10:46;99929.66;;;19.87;64.61
63700;BME280;49845;47.130;142.766;2023-08-06T05:13:17;99928.59;;;19.75;64.96
63700;BME280;49845;47.130;142.766;2023-08-06T05:15:47;99923.28;;;19.75;63.64
63700;BME280;49845;47.130;142.766;2023-08-06T05:18:18;99930.13;;;19.79;64.13
63700;BME280;49845;47.130;142.766;2023-08-06T05:20:48;99925.56;;;19.81;63.73
63700;BME280;49845;47.130;142.766;2023-08-06T05:23:20;99930.38;;;19.75;64.16
63700;BME280;49845;47.130;142.766;2023-08-06T05:25:51;99927.00;;;19.57;64.75
63700;BME280;49845;47.130;142.766;2023-08-06T05:28:21;99928.06;;;19.38;63.20
63700;BME280;49845;47.130;142.766;2023-08-06T05:30:52;99911.91;;;19.13;65.21
63700;BME280;49845;47.130;142.766;2023-08-06T05:33:23;99945.50;;;19.27;66.70
63700;BME280;49845;47.130;142.766;2023-08-06T05:35:53;99943.81;;;19.26;66.30
63700;BME280;49845;47.130;142.766;2023-08-06T05:38:25;99942.28;;;19.22;66.31
63700;BME280;49845;47.130;142.766;2023-08-06T05:40:56;99951.09;;;19.22;66.95
63700;BME280;49845;47.130;142.766;2023-08-06T05:43:26;99951.34;;;19.17;67.57
63700;BME280;49845;47.130;142.766;2023-08-06T05:45:57;99947.88;;;19.17;67.66
63700;BME280;49845;47.130;142.766;2023-08-06T05:48:28;99950.00;;;19.10;66.50
63700;BME280;49845;47.130;142.766;2023-08-06T05:50:58;99961.94;;;19.02;67.82
63700;BME280;49845;47.130;142.766;2023-08-06T05:53:30;99962.91;;;19.01;68.06
63700;BME280;49845;47.130;142.766;2023-08-06T05:56:01;99957.00;;;18.95;67.62
63700;BME280;49845;47.130;142.766;2023-08-06T05:58:31;99951.53;;;18.99;68.32
63700;BME280;49845;47.130;142.766;2023-08-06T06:01:01;99953.41;;;18.96;68.22
63700;BME280;49845;47.130;142.766;2023-08-06T06:03:32;99954.94;;;19.01;68.02
63700;BME280;49845;47.130;142.766;2023-08-06T06:06:03;99961.19;;;19.00;68.84
63700;BME280;49845;47.130;142.766;2023-08-06T06:08:35;99953.84;;;19.05;68.77
63700;BME280;49845;47.130;142.766;2023-08-06T06:11:05;99958.00;;;19.09;68.78
63700;BME280;49845;47.130;142.766;2023-08-06T06:13:36;99958.78;;;19.11;67.45
63700;BME280;49845;47.130;142.766;2023-08-06T06:16:06;99951.63;;;19.13;67.90
63700;BME280;49845;47.130;142.766;2023-08-06T06:18:37;99961.78;;;19.21;68.35
63700;BME280;49845;47.130;142.766;2023-08-06T06:21:07;99959.91;;;19.23;68.34
63700;BME280;49845;47.130;142.766;2023-08-06T06:23:39;99964.97;;;19.42;66.74
63700;BME280;49845;47.130;142.766;2023-08-06T06:26:10;99963.78;;;19.47;66.66
63700;BME280;49845;47.130;142.766;2023-08-06T06:28:41;99954.94;;;19.63;66.92
63700;BME280;49845;47.130;142.766;2023-08-06T06:31:11;99951.75;;;19.72;68.05
63700;BME280;49845;47.130;142.766;2023-08-06T06:33:42;99946.41;;;19.88;66.78
63700;BME280;49845;47.130;142.766;2023-08-06T06:36:13;99955.47;;;19.83;65.80
63700;BME280;49845;47.130;142.766;2023-08-06T06:38:45;99954.31;;;19.73;66.97
63700;BME280;49845;47.130;142.766;2023-08-06T06:41:16;99960.00;;;19.67;65.99
63700;BME280;49845;47.130;142.766;2023-08-06T06:43:47;99960.69;;;19.55;66.25
63700;BME280;49845;47.130;142.766;2023-08-06T06:46:17;99967.88;;;19.53;67.44
63700;BME280;49845;47.130;142.766;2023-08-06T06:48:48;99972.41;;;19.51;66.38
63700;BME280;49845;47.130;142.766;2023-08-06T06:51:18;99975.22;;;19.48;66.98
63700;BME280;49845;47.130;142.766;2023-08-06T06:53:51;99972.22;;;19.54;66.28
63700;BME280;49845;47.130;142.766;2023-08-06T06:56:21;99981.19;;;19.51;65.88
63700;BME280;49845;47.130;142.766;2023-08-06T06:58:52;99984.47;;;19.40;65.92
63700;BME280;49845;47.130;142.766;2023-08-06T07:01:22;99976.13;;;19.32;66.85
63700;BME280;49845;47.130;142.766;2023-08-06T07:03:53;99971.25;;;19.25;67.76
63700;BME280;49845;47.130;142.766;2023-08-06T07:06:23;99976.63;;;19.23;68.06
63700;BME280;49845;47.130;142.766;2023-08-06T07:08:56;99971.25;;;19.25;68.09
63700;BME280;49845;47.130;142.766;2023-08-06T07:11:26;99973.03;;;19.24;68.05
63700;BME280;49845;47.130;142.766;2023-08-06T07:13:57;99951.03;;;19.08;67.92
63700;BME280;49845;47.130;142.766;2023-08-06T07:16:28;99982.13;;;19.20;69.07
63700;BME280;49845;47.130;142.766;2023-08-06T07:18:59;99989.22;;;19.20;70.08
63700;BME280;49845;47.130;142.766;2023-08-06T07:21:29;99996.28;;;19.19;70.70
63700;BME280;49845;47.130;142.766;2023-08-06T07:24:01;99991.34;;;19.13;72.11
63700;BME280;49845;47.130;142.766;2023-08-06T07:26:32;99986.72;;;19.01;73.55
63700;BME280;49845;47.130;142.766;2023-08-06T07:29:02;99996.28;;;19.03;75.40
63700;BME280;49845;47.130;142.766;2023-08-06T07:31:33;99986.38;;;19.07;75.96
63700;BME280;49845;47.130;142.766;2023-08-06T07:34:05;99979.56;;;19.03;75.41
63700;BME280;49845;47.130;142.766;2023-08-06T07:36:39;99983.66;;;18.92;75.29
63700;BME280;49845;47.130;142.766;2023-08-06T07:39:30;99984.34;;;18.80;73.30
63700;BME280;49845;47.130;142.766;2023-08-06T07:42:11;99991.00;;;18.87;71.85
63700;BME280;49845;47.130;142.766;2023-08-06T07:44:44;99996.13;;;18.90;72.66
63700;BME280;49845;47.130;142.766;2023-08-06T07:47:20;99998.34;;;18.82;72.12
63700;BME280;49845;47.130;142.766;2023-08-06T07:49:53;100007.66;;;18.72;74.70
63700;BME280;49845;47.130;142.766;2023-08-06T07:52:26;99995.88;;;18.62;75.35
63700;BME280;49845;47.130;142.766;2023-08-06T07:54:59;100003.38;;;18.53;76.43
63700;BME280;49845;47.130;142.766;2023-08-06T07:57:34;100005.59;;;18.45;76.75
63700;BME280;49845;47.130;142.766;2023-08-06T08:00:08;99998.56;;;18.44;77.96
63700;BME280;49845;47.130;142.766;2023-08-06T08:02:41;99998.91;;;18.38;78.80
63700;BME280;49845;47.130;142.766;2023-08-06T08:05:14;99997.50;;;18.31;79.59
63700;BME280;49845;47.130;142.766;2023-08-06T08:07:46;99972.91;;;18.13;80.08
63700;BME280;49845;47.130;142.766;2023-08-06T08:10:20;99996.63;;;18.15;80.66
63700;BME280;49845;47.130;142.766;2023-08-06T08:12:52;100005.31;;;18.17;81.65
63700;BME280;49845;47.130;142.766;2023-08-06T08:15:25;99959.31;;;17.86;83.45
63700;BME280;49845;47.130;142.766;2023-08-06T08:17:59;100001.59;;;18.03;84.81
63700;BME280;49845;47.130;142.766;2023-08-06T08:20:31;99994.00;;;17.97;85.49
63700;BME280;49845;47.130;142.766;2023-08-06T08:23:06;100005.19;;;18.02;86.33
63700;BME280;49845;47.130;142.766;2023-08-06T08:25:40;100001.13;;;17.95;86.83
63700;BME280;49845;47.130;142.766;2023-08-06T08:28:13;100004.56;;;17.97;87.96
63700;BME280;49845;47.130;142.766;2023-08-06T08:30:45;99994.13;;;17.94;88.75
63700;BME280;49845;47.130;142.766;2023-08-06T08:33:17;99998.00;;;17.87;88.88
63700;BME280;49845;47.130;142.766;2023-08-06T08:35:50;99996.63;;;17.80;89.81
63700;BME280;49845;47.130;142.766;2023-08-06T08:38:24;99993.41;;;17.73;90.23
63700;BME280;49845;47.130;142.766;2023-08-06T08:40:59;99997.97;;;17.69;90.65
63700;BME280;49845;47.130;142.766;2023-08-06T08:43:32;100009.03;;;17.60;91.79
63700;BME280;49845;47.130;142.766;2023-08-06T08:46:07;100012.09;;;17.51;92.67
63700;BME280;49845;47.130;142.766;2023-08-06T08:48:41;100016.13;;;17.41;93.60
63700;BME280;49845;47.130;142.766;2023-08-06T08:51:15;100016.56;;;17.32;94.12
63700;BME280;49845;47.130;142.766;2023-08-06T08:53:50;100019.72;;;17.21;95.25
63700;BME280;49845;47.130;142.766;2023-08-06T08:56:29;100027.00;;;17.16;96.01
63700;BME280;49845;47.130;142.766;2023-08-06T08:59:02;100022.88;;;17.10;96.56
63700;BME280;49845;47.130;142.766;2023-08-06T09:01:34;100018.97;;;17.00;97.09
63700;BME280;49845;47.130;142.766;2023-08-06T09:04:08;100025.31;;;16.96;98.10
63700;BME280;49845;47.130;142.766;2023-08-06T09:06:50;100003.97;;;16.81;98.30
63700;BME280;49845;47.130;142.766;2023-08-06T09:09:24;100027.16;;;16.94;98.82
63700;BME280;49845;47.130;142.766;2023-08-06T09:12:00;100025.16;;;17.18;98.44
63700;BME280;49845;47.130;142.766;2023-08-06T09:14:32;100030.72;;;17.31;98.00
63700;BME280;49845;47.130;142.766;2023-08-06T09:17:03;100035.41;;;17.43;97.16
63700;BME280;49845;47.130;142.766;2023-08-06T09:19:42;100029.81;;;17.49;96.54
63700;BME280;49845;47.130;142.766;2023-08-06T09:22:16;100042.22;;;17.47;96.54
63700;BME280;49845;47.130;142.766;2023-08-06T09:24:47;100046.97;;;17.40;96.87
63700;BME280;49845;47.130;142.766;2023-08-06T09:27:20;100036.16;;;17.28;97.33
63700;BME280;49845;47.130;142.766;2023-08-06T09:29:54;100046.34;;;17.16;97.86
63700;BME280;49845;47.130;142.766;2023-08-06T09:32:26;100044.28;;;17.04;98.50
63700;BME280;49845;47.130;142.766;2023-08-06T09:35:02;100045.63;;;16.94;99.55
63700;BME280;49845;47.130;142.766;2023-08-06T09:37:36;99999.22;;;16.50;100.00
63700;BME280;49845;47.130;142.766;2023-08-06T09:40:25;99976.19;;;16.35;100.00
63700;BME280;49845;47.130;142.766;2023-08-06T09:43:00;100039.09;;;16.63;100.00
63700;BME280;49845;47.130;142.766;2023-08-06T09:45:35;100051.63;;;16.58;100.00
63700;BME280;49845;47.130;142.766;2023-08-06T09:48:08;100071.28;;;16.51;100.00
63700;BME280;49845;47.130;142.766;2023-08-06T09:50:42;100073.41;;;16.43;100.00
63700;BME280;49845;47.130;142.766;2023-08-06T09:53:16;100080.66;;;16.37;100.00
63700;BME280;49845;47.130;142.766;2023-08-06T09:55:49;100081.91;;;16.29;100.00
63700;BME280;49845;47.130;142.766;2023-08-06T09:58:25;100009.59;;;15.73;100.00
63700;BME280;49845;47.130;142.766;2023-08-06T10:00:57;100085.25;;;16.12;100.00
63700;BME280;49845;47.130;142.766;2023-08-06T10:03:32;100097.38;;;16.16;100.00
63700;BME280;49845;47.130;142.766;2023-08-06T10:06:08;100094.09;;;16.11;100.00
63700;BME280;49845;47.130;142.766;2023-08-06T10:08:44;100092.34;;;16.10;100.00
63700;BME280;49845;47.130;142.766;2023-08-06T10:11:15;100090.66;;;16.09;100.00
63700;BME280;49845;47.130;142.766;2023-08-06T10:13:52;100095.25;;;16.04;100.00
63700;BME280;49845;47.130;142.766;2023-08-06T10:16:28;100096.06;;;16.06;100.00
63700;BME280;49845;47.130;142.766;2023-08-06T10:19:01;100093.59;;;16.01;100.00
63700;BME280;49845;47.130;142.766;2023-08-06T10:21:33;100114.63;;;16.03;100.00
63700;BME280;49845;47.130;142.766;2023-08-06T10:24:07;100103.53;;;15.94;100.00
63700;BME280;49845;47.130;142.766;2023-08-06T10:26:44;100107.91;;;15.95;100.00
63700;BME280;49845;47.130;142.766;2023-08-06T10:29:39;100110.41;;;15.99;100.00
63700;BME280;49845;47.130;142.766;2023-08-06T10:32:13;100121.06;;;15.95;100.00
63700;BME280;49845;47.130;142.766;2023-08-06T10:34:57;100125.50;;;15.95;100.00
63700;BME280;49845;47.130;142.766;2023-08-06T10:37:44;100122.91;;;15.93;100.00
63700;BME280;49845;47.130;142.766;2023-08-06T10:40:31;100128.41;;;15.87;100.00
63700;BME280;49845;47.130;142.766;2023-08-06T10:43:05;100130.28;;;15.85;100.00
63700;BME280;49845;47.130;142.766;2023-08-06T10:45:51;100130.28;;;15.85;100.00
63700;BME280;49845;47.130;142.766;2023-08-06T10:48:46;100133.94;;;15.81;100.00
63700;BME280;49845;47.130;142.766;2023-08-06T10:51:34;100139.47;;;15.75;100.00
63700;BME280;49845;47.130;142.766;2023-08-06T10:54:06;100137.97;;;15.68;100.00
63700;BME280;49845;47.130;142.766;2023-08-06T10:56:41;100126.06;;;15.58;100.00
63700;BME280;49845;47.130;142.766;2023-08-06T10:59:15;100135.13;;;15.50;100.00
63700;BME280;49845;47.130;142.766;2023-08-06T11:01:49;100142.22;;;15.48;100.00
63700;BME280;49845;47.130;142.766;2023-08-06T11:04:23;100147.63;;;15.45;100.00
63700;BME280;49845;47.130;142.766;2023-08-06T11:06:56;100149.66;;;15.37;100.00
63700;BME280;49845;47.130;142.766;2023-08-06T11:09:28;100138.53;;;15.30;100.00
63700;BME280;49845;47.130;142.766;2023-08-06T11:12:00;100135.25;;;15.24;100.00
63700;BME280;49845;47.130;142.766;2023-08-06T11:14:32;100139.84;;;15.19;100.00
63700;BME280;49845;47.130;142.766;2023-08-06T11:17:06;100140.16;;;15.09;100.00
63700;BME280;49845;47.130;142.766;2023-08-06T11:19:38;100140.63;;;14.97;100.00
63700;BME280;49845;47.130;142.766;2023-08-06T11:22:10;100146.22;;;14.88;100.00
63700;BME280;49845;47.130;142.766;2023-08-06T11:24:48;100115.69;;;14.59;100.00
63700;BME280;49845;47.130;142.766;2023-08-06T11:27:22;100139.09;;;14.66;100.00
63700;BME280;49845;47.130;142.766;2023-08-06T11:29:54;100133.38;;;14.55;100.00
63700;BME280;49845;47.130;142.766;2023-08-06T11:32:28;100121.72;;;14.36;100.00
63700;BME280;49845;47.130;142.766;2023-08-06T11:35:10;100147.06;;;14.38;100.00
63700;BME280;49845;47.130;142.766;2023-08-06T11:37:45;100122.56;;;14.11;100.00
63700;BME280;49845;47.130;142.766;2023-08-06T11:40:17;100152.75;;;14.24;100.00
63700;BME280;49845;47.130;142.766;2023-08-06T11:42:51;100148.53;;;14.20;100.00
63700;BME280;49845;47.130;142.766;2023-08-06T11:45:25;100148.72;;;14.14;100.00
63700;BME280;49845;47.130;142.766;2023-08-06T11:47:59;100135.47;;;13.91;100.00
63700;BME280;49845;47.130;142.766;2023-08-06T11:50:37;100146.84;;;13.91;100.00
63700;BME280;49845;47.130;142.766;2023-08-06T11:53:13;100151.03;;;13.97;100.00
63700;BME280;49845;47.130;142.766;2023-08-06T11:55:45;100152.94;;;13.92;100.00
63700;BME280;49845;47.130;142.766;2023-08-06T11:58:18;100138.28;;;13.85;100.00
63700;BME280;49845;47.130;142.766;2023-08-06T12:00:51;100145.06;;;13.92;100.00
63700;BME280;49845;47.130;142.766;2023-08-06T12:03:29;100145.31;;;13.84;100.00
63700;BME280;49845;47.130;142.766;2023-08-06T12:06:05;100141.22;;;13.75;100.00
63700;BME280;49845;47.130;142.766;2023-08-06T12:08:43;100137.06;;;13.68;100.00
63700;BME280;49845;47.130;142.766;2023-08-06T12:11:21;100140.72;;;13.63;100.00
63700;BME280;49845;47.130;142.766;2023-08-06T12:13:58;100148.84;;;13.55;100.00
63700;BME280;49845;47.130;142.766;2023-08-06T12:16:31;100147.22;;;13.51;100.00
63700;BME280;49845;47.130;142.766;2023-08-06T12:19:10;100134.69;;;13.31;100.00
63700;BME280;49845;47.130;142.766;2023-08-06T12:21:42;100139.19;;;13.26;100.00
63700;BME280;49845;47.130;142.766;2023-08-06T12:24:15;100140.31;;;13.17;100.00
63700;BME280;49845;47.130;142.766;2023-08-06T12:26:48;100140.53;;;13.09;100.00
63700;BME280;49845;47.130;142.766;2023-08-06T12:29:22;100145.03;;;13.06;100.00
63700;BME280;49845;47.130;142.766;2023-08-06T12:31:57;100158.13;;;13.06;100.00
63700;BME280;49845;47.130;142.766;2023-08-06T12:34:30;100160.75;;;13.06;100.00
63700;BME280;49845;47.130;142.766;2023-08-06T12:37:24;100134.59;;;13.03;100.00
63700;BME280;49845;47.130;142.766;2023-08-06T12:40:05;100160.66;;;13.09;100.00
63700;BME280;49845;47.130;142.766;2023-08-06T12:43:04;100134.16;;;12.87;100.00
63700;BME280;49845;47.130;142.766;2023-08-06T12:45:46;100164.31;;;13.03;100.00
63700;BME280;49845;47.130;142.766;2023-08-06T12:48:24;100161.81;;;12.99;100.00
63700;BME280;49845;47.130;142.766;2023-08-06T12:50:58;100156.81;;;12.89;100.00
63700;BME280;49845;47.130;142.766;2023-08-06T12:53:29;100152.75;;;12.79;100.00
63700;BME280;49845;47.130;142.766;2023-08-06T12:56:01;100162.31;;;12.80;100.00
63700;BME280;49845;47.130;142.766;2023-08-06T12:58:33;100172.88;;;12.79;100.00
63700;BME280;49845;47.130;142.766;2023-08-06T13:01:08;100154.63;;;12.74;100.00